sensor_id;sensor_type;location;lat;lon;timestamp;P1;durP1;ratioP1;P2;durP2;ratioP2
58950;SDS011;44730;53.158;6.398;2022-07-23T00:01:18;6.50;;;4.30;;
58950;SDS011;44730;53.158;6.398;2022-07-23T00:03:47;4.20;;;3.60;;
58950;SDS011;44730;53.158;6.398;2022-07-23T00:06:13;5.93;;;3.85;;
58950;SDS011;44730;53.158;6.398;2022-07-23T00:08:38;7.55;;;4.07;;
58950;SDS011;44730;53.158;6.398;2022-07-23T00:11:04;6.30;;;4.07;;
58950;SDS011;44730;53.158;6.398;2022-07-23T00:13:30;5.90;;;3.55;;
58950;SDS011;44730;53.158;6.398;2022-07-23T00:15:56;5.70;;;3.88;;
58950;SDS011;44730;53.158;6.398;2022-07-23T00:18:22;5.97;;;3.63;;
58950;SDS011;44730;53.158;6.398;2022-07-23T00:20:47;6.95;;;4.45;;
58950;SDS011;44730;53.158;6.398;2022-07-23T00:23:13;6.00;;;4.60;;
58950;SDS011;44730;53.158;6.398;2022-07-23T00:25:39;6.43;;;4.05;;
58950;SDS011;44730;53.158;6.398;2022-07-23T00:28:05;6.65;;;4.00;;
58950;SDS011;44730;53.158;6.398;2022-07-23T00:30:31;7.03;;;4.13;;
58950;SDS011;44730;53.158;6.398;2022-07-23T00:33:01;5.55;;;4.32;;
58950;SDS011;44730;53.158;6.398;2022-07-23T00:35:31;7.65;;;4.35;;
58950;SDS011;44730;53.158;6.398;2022-07-23T00:38:02;4.70;;;3.80;;
58950;SDS011;44730;53.158;6.398;2022-07-23T00:40:30;6.82;;;3.78;;
58950;SDS011;44730;53.158;6.398;2022-07-23T00:42:56;5.50;;;3.80;;
58950;SDS011;44730;53.158;6.398;2022-07-23T00:45:22;4.70;;;3.58;;
58950;SDS011;44730;53.158;6.398;2022-07-23T00:47:47;7.88;;;3.65;;
58950;SDS011;44730;53.158;6.398;2022-07-23T00:50:13;6.78;;;4.43;;
58950;SDS011;44730;53.158;6.398;2022-07-23T00:52:40;5.65;;;4.00;;
58950;SDS011;44730;53.158;6.398;2022-07-23T00:55:06;5.63;;;3.53;;
58950;SDS011;44730;53.158;6.398;2022-07-23T00:57:32;6.22;;;3.90;;
58950;SDS011;44730;53.158;6.398;2022-07-23T00:59:58;4.88;;;3.80;;
58950;SDS011;44730;53.158;6.398;2022-07-23T01:02:25;7.15;;;3.88;;
58950;SDS011;44730;53.158;6.398;2022-07-23T01:04:51;6.47;;;3.28;;
58950;SDS011;44730;53.158;6.398;2022-07-23T01:07:17;4.93;;;3.50;;
58950;SDS011;44730;53.158;6.398;2022-07-23T01:09:44;7.10;;;3.90;;
58950;SDS011;44730;53.158;6.398;2022-07-23T01:12:10;6.07;;;3.80;;
58950;SDS011;44730;53.158;6.398;2022-07-23T01:14:36;5.05;;;3.42;;
58950;SDS011;44730;53.158;6.398;2022-07-23T01:17:02;5.00;;;3.65;;
58950;SDS011;44730;53.158;6.398;2022-07-23T01:19:28;6.53;;;3.92;;
58950;SDS011;44730;53.158;6.398;2022-07-23T01:21:53;7.18;;;4.03;;
58950;SDS011;44730;53.158;6.398;2022-07-23T01:24:23;6.55;;;4.05;;
58950;SDS011;44730;53.158;6.398;2022-07-23T01:26:49;7.07;;;4.20;;
58950;SDS011;44730;53.158;6.398;2022-07-23T01:29:15;5.68;;;3.88;;
58950;SDS011;44730;53.158;6.398;2022-07-23T01:31:42;6.97;;;4.60;;
58950;SDS011;44730;53.158;6.398;2022-07-23T01:34:08;5.90;;;3.85;;
58950;SDS011;44730;53.158;6.398;2022-07-23T01:36:35;7.28;;;4.03;;
58950;SDS011;44730;53.158;6.398;2022-07-23T01:39:02;6.95;;;3.88;;
58950;SDS011;44730;53.158;6.398;2022-07-23T01:41:29;6.78;;;4.32;;
58950;SDS011;44730;53.158;6.398;2022-07-23T01:43:55;7.97;;;4.43;;
58950;SDS011;44730;53.158;6.398;2022-07-23T01:46:21;6.38;;;4.15;;
58950;SDS011;44730;53.158;6.398;2022-07-23T01:48:46;6.13;;;4.38;;
58950;SDS011;44730;53.158;6.398;2022-07-23T01:51:12;8.25;;;4.45;;
58950;SDS011;44730;53.158;6.398;2022-07-23T01:53:37;7.22;;;4.38;;
58950;SDS011;44730;53.158;6.398;2022-07-23T01:56:03;7.18;;;4.82;;
58950;SDS011;44730;53.158;6.398;2022-07-23T01:58:29;5.88;;;4.25;;
58950;SDS011;44730;53.158;6.398;2022-07-23T02:00:55;6.55;;;4.28;;
58950;SDS011;44730;53.158;6.398;2022-07-23T02:03:21;5.68;;;4.57;;
58950;SDS011;44730;53.158;6.398;2022-07-23T02:05:47;9.25;;;4.40;;
58950;SDS011;44730;53.158;6.398;2022-07-23T02:08:13;7.55;;;4.75;;
58950;SDS011;44730;53.158;6.398;2022-07-23T02:10:39;6.78;;;4.80;;
58950;SDS011;44730;53.158;6.398;2022-07-23T02:13:04;7.55;;;5.18;;
58950;SDS011;44730;53.158;6.398;2022-07-23T02:15:30;7.50;;;4.82;;
58950;SDS011;44730;53.158;6.398;2022-07-23T02:17:56;7.93;;;5.50;;
58950;SDS011;44730;53.158;6.398;2022-07-23T02:20:22;8.23;;;5.25;;
58950;SDS011;44730;53.158;6.398;2022-07-23T02:22:48;8.85;;;5.15;;
58950;SDS011;44730;53.158;6.398;2022-07-23T02:25:14;8.25;;;5.32;;
58950;SDS011;44730;53.158;6.398;2022-07-23T02:27:40;8.70;;;5.20;;
58950;SDS011;44730;53.158;6.398;2022-07-23T02:30:06;8.50;;;5.32;;
58950;SDS011;44730;53.158;6.398;2022-07-23T02:32:32;7.47;;;4.97;;
58950;SDS011;44730;53.158;6.398;2022-07-23T02:34:58;6.93;;;4.88;;
58950;SDS011;44730;53.158;6.398;2022-07-23T02:37:24;8.38;;;5.10;;
58950;SDS011;44730;53.158;6.398;2022-07-23T02:39:50;6.97;;;4.65;;
58950;SDS011;44730;53.158;6.398;2022-07-23T02:42:15;8.07;;;5.32;;
58950;SDS011;44730;53.158;6.398;2022-07-23T02:44:41;6.70;;;4.97;;
58950;SDS011;44730;53.158;6.398;2022-07-23T02:47:07;7.55;;;4.72;;
58950;SDS011;44730;53.158;6.398;2022-07-23T02:49:32;7.25;;;4.90;;
58950;SDS011;44730;53.158;6.398;2022-07-23T02:51:58;6.45;;;4.80;;
58950;SDS011;44730;53.158;6.398;2022-07-23T02:54:24;8.52;;;4.97;;
58950;SDS011;44730;53.158;6.398;2022-07-23T02:56:50;7.07;;;4.50;;
58950;SDS011;44730;53.158;6.398;2022-07-23T02:59:16;6.93;;;4.80;;
58950;SDS011;44730;53.158;6.398;2022-07-23T03:01:43;7.35;;;4.75;;
58950;SDS011;44730;53.158;6.398;2022-07-23T03:04:09;8.10;;;5.25;;
58950;SDS011;44730;53.158;6.398;2022-07-23T03:06:35;7.65;;;4.22;;
58950;SDS011;44730;53.158;6.398;2022-07-23T03:09:01;7.90;;;5.03;;
58950;SDS011;44730;53.158;6.398;2022-07-23T03:11:27;7.78;;;5.30;;
58950;SDS011;44730;53.158;6.398;2022-07-23T03:13:53;7.35;;;4.40;;
58950;SDS011;44730;53.158;6.398;2022-07-23T03:16:19;6.20;;;4.57;;
58950;SDS011;44730;53.158;6.398;2022-07-23T03:18:45;7.50;;;4.38;;
58950;SDS011;44730;53.158;6.398;2022-07-23T03:21:10;6.68;;;4.47;;
58950;SDS011;44730;53.158;6.398;2022-07-23T03:23:36;7.35;;;4.65;;
58950;SDS011;44730;53.158;6.398;2022-07-23T03:26:02;6.38;;;4.22;;
58950;SDS011;44730;53.158;6.398;2022-07-23T03:28:28;5.90;;;4.15;;
58950;SDS011;44730;53.158;6.398;2022-07-23T03:30:53;7.72;;;4.43;;
58950;SDS011;44730;53.158;6.398;2022-07-23T03:33:19;9.55;;;4.47;;
58950;SDS011;44730;53.158;6.398;2022-07-23T03:35:46;7.93;;;4.68;;
58950;SDS011;44730;53.158;6.398;2022-07-23T03:38:12;6.28;;;4.60;;
58950;SDS011;44730;53.158;6.398;2022-07-23T03:40:38;6.43;;;4.72;;
58950;SDS011;44730;53.158;6.398;2022-07-23T03:43:04;6.30;;;4.03;;
58950;SDS011;44730;53.158;6.398;2022-07-23T03:45:30;9.38;;;5.00;;
58950;SDS011;44730;53.158;6.398;2022-07-23T03:47:56;6.57;;;4.47;;
58950;SDS011;44730;53.158;6.398;2022-07-23T03:50:22;7.13;;;4.45;;
58950;SDS011;44730;53.158;6.398;2022-07-23T03:52:47;6.68;;;4.28;;
58950;SDS011;44730;53.158;6.398;2022-07-23T03:55:13;6.18;;;4.35;;
58950;SDS011;44730;53.158;6.398;2022-07-23T03:57:39;7.03;;;4.60;;
58950;SDS011;44730;53.158;6.398;2022-07-23T04:00:06;7.07;;;4.45;;
58950;SDS011;44730;53.158;6.398;2022-07-23T04:02:34;7.72;;;4.57;;
58950;SDS011;44730;53.158;6.398;2022-07-23T04:05:04;5.20;;;3.90;;
58950;SDS011;44730;53.158;6.398;2022-07-23T04:07:49;7.22;;;4.07;;
58950;SDS011;44730;53.158;6.398;2022-07-23T04:10:15;7.13;;;4.13;;
58950;SDS011;44730;53.158;6.398;2022-07-23T04:12:41;5.68;;;4.50;;
58950;SDS011;44730;53.158;6.398;2022-07-23T04:15:06;6.90;;;4.07;;
58950;SDS011;44730;53.158;6.398;2022-07-23T04:17:33;5.13;;;3.53;;
58950;SDS011;44730;53.158;6.398;2022-07-23T04:19:58;5.15;;;3.80;;
58950;SDS011;44730;53.158;6.398;2022-07-23T04:22:24;5.32;;;4.07;;
58950;SDS011;44730;53.158;6.398;2022-07-23T04:24:50;7.78;;;4.10;;
58950;SDS011;44730;53.158;6.398;2022-07-23T04:27:31;6.78;;;3.83;;
58950;SDS011;44730;53.158;6.398;2022-07-23T04:29:58;5.72;;;3.58;;
58950;SDS011;44730;53.158;6.398;2022-07-23T04:32:24;6.47;;;4.18;;
58950;SDS011;44730;53.158;6.398;2022-07-23T04:34:50;6.68;;;3.83;;
58950;SDS011;44730;53.158;6.398;2022-07-23T04:37:16;7.55;;;4.88;;
58950;SDS011;44730;53.158;6.398;2022-07-23T04:39:41;9.48;;;4.93;;
58950;SDS011;44730;53.158;6.398;2022-07-23T04:42:07;7.30;;;4.00;;
58950;SDS011;44730;53.158;6.398;2022-07-23T04:44:32;5.82;;;4.10;;
58950;SDS011;44730;53.158;6.398;2022-07-23T04:46:58;5.68;;;4.13;;
58950;SDS011;44730;53.158;6.398;2022-07-23T04:49:24;6.28;;;4.10;;
58950;SDS011;44730;53.158;6.398;2022-07-23T04:51:49;6.35;;;3.75;;
58950;SDS011;44730;53.158;6.398;2022-07-23T04:54:16;6.30;;;3.60;;
58950;SDS011;44730;53.158;6.398;2022-07-23T04:56:42;6.45;;;4.10;;
58950;SDS011;44730;53.158;6.398;2022-07-23T04:59:08;5.22;;;3.70;;
58950;SDS011;44730;53.158;6.398;2022-07-23T05:01:33;6.10;;;3.97;;
58950;SDS011;44730;53.158;6.398;2022-07-23T05:03:59;5.75;;;3.70;;
58950;SDS011;44730;53.158;6.398;2022-07-23T05:06:25;5.82;;;3.95;;
58950;SDS011;44730;53.158;6.398;2022-07-23T05:08:50;6.43;;;3.78;;
58950;SDS011;44730;53.158;6.398;2022-07-23T05:11:16;6.03;;;4.15;;
58950;SDS011;44730;53.158;6.398;2022-07-23T05:13:42;6.68;;;3.47;;
58950;SDS011;44730;53.158;6.398;2022-07-23T05:16:07;5.72;;;4.07;;
58950;SDS011;44730;53.158;6.398;2022-07-23T05:18:33;6.13;;;3.92;;
58950;SDS011;44730;53.158;6.398;2022-07-23T05:20:58;5.55;;;3.78;;
58950;SDS011;44730;53.158;6.398;2022-07-23T05:23:24;6.10;;;3.90;;
58950;SDS011;44730;53.158;6.398;2022-07-23T05:25:50;6.50;;;3.80;;
58950;SDS011;44730;53.158;6.398;2022-07-23T05:28:15;6.78;;;4.00;;
58950;SDS011;44730;53.158;6.398;2022-07-23T05:30:41;5.78;;;3.53;;
58950;SDS011;44730;53.158;6.398;2022-07-23T05:33:06;5.32;;;3.72;;
58950;SDS011;44730;53.158;6.398;2022-07-23T05:35:33;5.85;;;3.17;;
58950;SDS011;44730;53.158;6.398;2022-07-23T05:37:59;5.88;;;3.60;;
58950;SDS011;44730;53.158;6.398;2022-07-23T05:40:24;4.65;;;3.00;;
58950;SDS011;44730;53.158;6.398;2022-07-23T05:42:50;5.00;;;2.90;;
58950;SDS011;44730;53.158;6.398;2022-07-23T05:45:15;4.22;;;3.03;;
58950;SDS011;44730;53.158;6.398;2022-07-23T05:47:42;5.75;;;2.88;;
58950;SDS011;44730;53.158;6.398;2022-07-23T05:50:11;4.70;;;2.60;;
58950;SDS011;44730;53.158;6.398;2022-07-23T05:52:38;2.53;;;2.10;;
58950;SDS011;44730;53.158;6.398;2022-07-23T05:55:05;3.97;;;2.30;;
58950;SDS011;44730;53.158;6.398;2022-07-23T05:57:31;3.67;;;2.42;;
58950;SDS011;44730;53.158;6.398;2022-07-23T05:59:57;2.83;;;2.38;;
58950;SDS011;44730;53.158;6.398;2022-07-23T06:02:22;4.45;;;2.40;;
58950;SDS011;44730;53.158;6.398;2022-07-23T06:04:48;3.25;;;2.20;;
58950;SDS011;44730;53.158;6.398;2022-07-23T06:07:14;4.55;;;2.00;;
58950;SDS011;44730;53.158;6.398;2022-07-23T06:09:39;2.80;;;1.95;;
58950;SDS011;44730;53.158;6.398;2022-07-23T06:12:05;3.15;;;1.83;;
58950;SDS011;44730;53.158;6.398;2022-07-23T06:14:31;3.72;;;2.00;;
58950;SDS011;44730;53.158;6.398;2022-07-23T06:16:57;2.90;;;1.80;;
58950;SDS011;44730;53.158;6.398;2022-07-23T06:19:22;4.20;;;2.20;;
58950;SDS011;44730;53.158;6.398;2022-07-23T06:21:48;3.13;;;1.70;;
58950;SDS011;44730;53.158;6.398;2022-07-23T06:24:14;2.78;;;1.80;;
58950;SDS011;44730;53.158;6.398;2022-07-23T06:26:39;7.22;;;2.05;;
58950;SDS011;44730;53.158;6.398;2022-07-23T06:29:05;3.95;;;1.70;;
58950;SDS011;44730;53.158;6.398;2022-07-23T06:31:31;1.42;;;1.33;;
58950;SDS011;44730;53.158;6.398;2022-07-23T06:33:56;2.03;;;1.40;;
58950;SDS011;44730;53.158;6.398;2022-07-23T06:36:22;2.58;;;1.27;;
58950;SDS011;44730;53.158;6.398;2022-07-23T06:38:47;2.55;;;1.30;;
58950;SDS011;44730;53.158;6.398;2022-07-23T06:41:13;1.75;;;1.27;;
58950;SDS011;44730;53.158;6.398;2022-07-23T06:43:39;1.40;;;1.17;;
58950;SDS011;44730;53.158;6.398;2022-07-23T06:46:04;2.70;;;1.08;;
58950;SDS011;44730;53.158;6.398;2022-07-23T06:48:30;1.20;;;1.10;;
58950;SDS011;44730;53.158;6.398;2022-07-23T06:50:56;3.45;;;1.10;;
58950;SDS011;44730;53.158;6.398;2022-07-23T06:53:21;1.02;;;0.95;;
58950;SDS011;44730;53.158;6.398;2022-07-23T06:55:47;0.70;;;0.68;;
58950;SDS011;44730;53.158;6.398;2022-07-23T06:58:13;1.80;;;0.80;;
58950;SDS011;44730;53.158;6.398;2022-07-23T07:00:39;1.42;;;0.90;;
58950;SDS011;44730;53.158;6.398;2022-07-23T07:03:05;3.97;;;1.20;;
58950;SDS011;44730;53.158;6.398;2022-07-23T07:05:31;1.13;;;0.90;;
58950;SDS011;44730;53.158;6.398;2022-07-23T07:07:56;1.70;;;0.90;;
58950;SDS011;44730;53.158;6.398;2022-07-23T07:10:22;1.48;;;0.95;;
58950;SDS011;44730;53.158;6.398;2022-07-23T07:12:48;0.82;;;0.82;;
58950;SDS011;44730;53.158;6.398;2022-07-23T07:15:14;0.90;;;0.70;;
58950;SDS011;44730;53.158;6.398;2022-07-23T07:17:42;2.05;;;1.23;;
58950;SDS011;44730;53.158;6.398;2022-07-23T07:20:07;0.95;;;0.88;;
58950;SDS011;44730;53.158;6.398;2022-07-23T07:22:35;1.63;;;0.82;;
58950;SDS011;44730;53.158;6.398;2022-07-23T07:25:01;0.90;;;0.77;;
58950;SDS011;44730;53.158;6.398;2022-07-23T07:27:29;3.00;;;0.90;;
58950;SDS011;44730;53.158;6.398;2022-07-23T07:29:54;1.60;;;0.65;;
58950;SDS011;44730;53.158;6.398;2022-07-23T07:32:22;1.23;;;0.70;;
58950;SDS011;44730;53.158;6.398;2022-07-23T07:34:47;1.27;;;0.80;;
58950;SDS011;44730;53.158;6.398;2022-07-23T07:37:15;0.80;;;0.80;;
58950;SDS011;44730;53.158;6.398;2022-07-23T07:39:41;0.75;;;0.75;;
58950;SDS011;44730;53.158;6.398;2022-07-23T07:42:10;2.08;;;0.90;;
58950;SDS011;44730;53.158;6.398;2022-07-23T07:44:39;0.75;;;0.75;;
58950;SDS011;44730;53.158;6.398;2022-07-23T07:47:05;1.63;;;1.00;;
58950;SDS011;44730;53.158;6.398;2022-07-23T07:49:30;4.60;;;0.95;;
58950;SDS011;44730;53.158;6.398;2022-07-23T07:51:58;1.95;;;0.90;;
58950;SDS011;44730;53.158;6.398;2022-07-23T07:54:23;2.55;;;1.00;;
58950;SDS011;44730;53.158;6.398;2022-07-23T07:56:49;1.25;;;0.90;;
58950;SDS011;44730;53.158;6.398;2022-07-23T07:59:14;0.73;;;0.70;;
58950;SDS011;44730;53.158;6.398;2022-07-23T08:01:40;1.63;;;0.80;;
58950;SDS011;44730;53.158;6.398;2022-07-23T08:04:06;1.23;;;1.00;;
58950;SDS011;44730;53.158;6.398;2022-07-23T08:06:35;0.90;;;0.90;;
58950;SDS011;44730;53.158;6.398;2022-07-23T08:09:01;2.45;;;1.10;;
58950;SDS011;44730;53.158;6.398;2022-07-23T08:11:27;0.95;;;0.77;;
58950;SDS011;44730;53.158;6.398;2022-07-23T08:13:54;1.15;;;0.90;;
58950;SDS011;44730;53.158;6.398;2022-07-23T08:16:20;1.42;;;0.90;;
58950;SDS011;44730;53.158;6.398;2022-07-23T08:18:45;2.38;;;1.17;;
58950;SDS011;44730;53.158;6.398;2022-07-23T08:21:12;2.25;;;0.90;;
58950;SDS011;44730;53.158;6.398;2022-07-23T08:23:38;1.08;;;0.98;;
58950;SDS011;44730;53.158;6.398;2022-07-23T08:26:04;0.90;;;0.90;;
58950;SDS011;44730;53.158;6.398;2022-07-23T08:28:30;2.13;;;0.95;;
58950;SDS011;44730;53.158;6.398;2022-07-23T08:30:58;3.35;;;1.13;;
58950;SDS011;44730;53.158;6.398;2022-07-23T08:33:24;6.55;;;1.85;;
58950;SDS011;44730;53.158;6.398;2022-07-23T08:35:50;0.93;;;0.93;;
58950;SDS011;44730;53.158;6.398;2022-07-23T08:38:18;2.45;;;1.17;;
58950;SDS011;44730;53.158;6.398;2022-07-23T08:40:49;1.02;;;1.02;;
58950;SDS011;44730;53.158;6.398;2022-07-23T08:43:20;1.98;;;1.00;;
58950;SDS011;44730;53.158;6.398;2022-07-23T08:45:51;1.08;;;0.95;;
58950;SDS011;44730;53.158;6.398;2022-07-23T08:48:22;1.35;;;1.15;;
58950;SDS011;44730;53.158;6.398;2022-07-23T08:51:02;2.78;;;1.10;;
58950;SDS011;44730;53.158;6.398;2022-07-23T08:53:30;2.72;;;1.00;;
58950;SDS011;44730;53.158;6.398;2022-07-23T08:55:58;0.90;;;0.90;;
58950;SDS011;44730;53.158;6.398;2022-07-23T08:58:26;2.50;;;1.20;;
58950;SDS011;44730;53.158;6.398;2022-07-23T09:00:53;1.42;;;0.93;;
58950;SDS011;44730;53.158;6.398;2022-07-23T09:03:28;1.20;;;1.00;;
58950;SDS011;44730;53.158;6.398;2022-07-23T09:05:56;2.15;;;1.20;;
58950;SDS011;44730;53.158;6.398;2022-07-23T09:08:23;1.98;;;1.23;;
58950;SDS011;44730;53.158;6.398;2022-07-23T09:10:57;2.58;;;0.93;;
58950;SDS011;44730;53.158;6.398;2022-07-23T09:16:07;1.83;;;1.00;;
58950;SDS011;44730;53.158;6.398;2022-07-23T09:21:39;1.75;;;1.08;;
58950;SDS011;44730;53.158;6.398;2022-07-23T09:24:05;1.08;;;0.90;;
58950;SDS011;44730;53.158;6.398;2022-07-23T09:26:45;1.17;;;1.00;;
58950;SDS011;44730;53.158;6.398;2022-07-23T09:29:13;1.10;;;1.00;;
58950;SDS011;44730;53.158;6.398;2022-07-23T09:31:45;2.30;;;1.00;;
58950;SDS011;44730;53.158;6.398;2022-07-23T09:36:49;2.95;;;1.15;;
58950;SDS011;44730;53.158;6.398;2022-07-23T09:39:24;1.10;;;0.90;;
58950;SDS011;44730;53.158;6.398;2022-07-23T09:41:51;1.38;;;1.10;;
58950;SDS011;44730;53.158;6.398;2022-07-23T09:44:19;1.08;;;0.88;;
58950;SDS011;44730;53.158;6.398;2022-07-23T09:46:46;1.40;;;1.30;;
58950;SDS011;44730;53.158;6.398;2022-07-23T09:49:17;1.40;;;1.00;;
58950;SDS011;44730;53.158;6.398;2022-07-23T09:57:07;2.45;;;1.10;;
58950;SDS011;44730;53.158;6.398;2022-07-23T09:59:58;1.02;;;1.00;;
58950;SDS011;44730;53.158;6.398;2022-07-23T10:02:33;1.23;;;1.10;;
58950;SDS011;44730;53.158;6.398;2022-07-23T10:04:59;1.27;;;0.98;;
58950;SDS011;44730;53.158;6.398;2022-07-23T10:07:27;1.13;;;0.95;;
58950;SDS011;44730;53.158;6.398;2022-07-23T10:09:56;1.50;;;1.30;;
58950;SDS011;44730;53.158;6.398;2022-07-23T10:12:23;2.00;;;1.17;;
58950;SDS011;44730;53.158;6.398;2022-07-23T10:15:09;1.10;;;1.00;;
58950;SDS011;44730;53.158;6.398;2022-07-23T10:17:38;2.50;;;1.00;;
58950;SDS011;44730;53.158;6.398;2022-07-23T10:20:04;1.20;;;1.10;;
58950;SDS011;44730;53.158;6.398;2022-07-23T10:22:33;2.15;;;1.30;;
58950;SDS011;44730;53.158;6.398;2022-07-23T10:30:30;2.08;;;1.10;;
58950;SDS011;44730;53.158;6.398;2022-07-23T10:33:04;3.28;;;1.35;;
58950;SDS011;44730;53.158;6.398;2022-07-23T10:41:12;1.15;;;1.05;;
58950;SDS011;44730;53.158;6.398;2022-07-23T10:43:37;1.80;;;1.10;;
58950;SDS011;44730;53.158;6.398;2022-07-23T10:46:23;2.80;;;1.40;;
58950;SDS011;44730;53.158;6.398;2022-07-23T11:02:31;1.58;;;1.30;;
58950;SDS011;44730;53.158;6.398;2022-07-23T11:07:35;3.30;;;1.70;;
58950;SDS011;44730;53.158;6.398;2022-07-23T11:10:03;2.67;;;1.55;;
58950;SDS011;44730;53.158;6.398;2022-07-23T11:12:33;3.70;;;1.40;;
58950;SDS011;44730;53.158;6.398;2022-07-23T11:15:10;1.58;;;1.38;;
58950;SDS011;44730;53.158;6.398;2022-07-23T11:22:45;1.52;;;1.10;;
58950;SDS011;44730;53.158;6.398;2022-07-23T11:25:14;1.95;;;1.35;;
58950;SDS011;44730;53.158;6.398;2022-07-23T11:28:15;2.53;;;1.52;;
58950;SDS011;44730;53.158;6.398;2022-07-23T11:30:44;1.95;;;1.67;;
58950;SDS011;44730;53.158;6.398;2022-07-23T11:33:18;2.88;;;1.33;;
58950;SDS011;44730;53.158;6.398;2022-07-23T11:35:46;2.53;;;1.60;;
58950;SDS011;44730;53.158;6.398;2022-07-23T11:40:52;1.58;;;1.48;;
58950;SDS011;44730;53.158;6.398;2022-07-23T11:43:19;3.00;;;1.63;;
58950;SDS011;44730;53.158;6.398;2022-07-23T11:45:50;4.97;;;1.63;;
58950;SDS011;44730;53.158;6.398;2022-07-23T11:48:24;6.00;;;2.05;;
58950;SDS011;44730;53.158;6.398;2022-07-23T11:50:55;2.15;;;1.58;;
58950;SDS011;44730;53.158;6.398;2022-07-23T11:53:36;1.58;;;1.48;;
58950;SDS011;44730;53.158;6.398;2022-07-23T11:56:07;1.88;;;1.30;;
58950;SDS011;44730;53.158;6.398;2022-07-23T11:58:35;1.65;;;1.52;;
58950;SDS011;44730;53.158;6.398;2022-07-23T12:01:03;2.55;;;1.50;;
58950;SDS011;44730;53.158;6.398;2022-07-23T12:03:29;2.35;;;1.55;;
58950;SDS011;44730;53.158;6.398;2022-07-23T12:05:56;3.50;;;1.73;;
58950;SDS011;44730;53.158;6.398;2022-07-23T12:08:23;2.65;;;1.50;;
58950;SDS011;44730;53.158;6.398;2022-07-23T12:10:49;2.72;;;1.85;;
58950;SDS011;44730;53.158;6.398;2022-07-23T12:13:16;3.45;;;1.73;;
58950;SDS011;44730;53.158;6.398;2022-07-23T12:15:47;1.92;;;1.58;;
58950;SDS011;44730;53.158;6.398;2022-07-23T12:18:16;2.92;;;1.83;;
58950;SDS011;44730;53.158;6.398;2022-07-23T12:20:49;3.10;;;1.75;;
58950;SDS011;44730;53.158;6.398;2022-07-23T12:23:16;3.65;;;1.50;;
58950;SDS011;44730;53.158;6.398;2022-07-23T12:25:44;2.53;;;1.60;;
58950;SDS011;44730;53.158;6.398;2022-07-23T12:28:15;1.83;;;1.42;;
58950;SDS011;44730;53.158;6.398;2022-07-23T12:30:53;1.88;;;1.60;;
58950;SDS011;44730;53.158;6.398;2022-07-23T12:33:24;1.58;;;1.48;;
58950;SDS011;44730;53.158;6.398;2022-07-23T12:35:51;1.55;;;1.45;;
58950;SDS011;44730;53.158;6.398;2022-07-23T12:38:23;4.20;;;2.10;;
58950;SDS011;44730;53.158;6.398;2022-07-23T12:43:24;2.33;;;1.60;;
58950;SDS011;44730;53.158;6.398;2022-07-23T12:46:05;3.40;;;1.65;;
58950;SDS011;44730;53.158;6.398;2022-07-23T12:48:34;4.07;;;1.85;;
58950;SDS011;44730;53.158;6.398;2022-07-23T12:51:25;2.10;;;1.50;;
58950;SDS011;44730;53.158;6.398;2022-07-23T12:53:53;1.65;;;1.45;;
58950;SDS011;44730;53.158;6.398;2022-07-23T12:58:58;1.75;;;1.50;;
58950;SDS011;44730;53.158;6.398;2022-07-23T13:01:40;1.63;;;1.48;;
58950;SDS011;44730;53.158;6.398;2022-07-23T13:04:11;1.80;;;1.55;;
58950;SDS011;44730;53.158;6.398;2022-07-23T13:06:46;2.00;;;1.38;;
58950;SDS011;44730;53.158;6.398;2022-07-23T13:09:20;2.47;;;1.50;;
58950;SDS011;44730;53.158;6.398;2022-07-23T13:11:48;2.08;;;1.40;;
58950;SDS011;44730;53.158;6.398;2022-07-23T13:14:15;1.33;;;1.23;;
58950;SDS011;44730;53.158;6.398;2022-07-23T13:16:44;1.30;;;1.20;;
58950;SDS011;44730;53.158;6.398;2022-07-23T13:19:10;2.05;;;1.25;;
58950;SDS011;44730;53.158;6.398;2022-07-23T13:21:37;2.80;;;1.33;;
58950;SDS011;44730;53.158;6.398;2022-07-23T13:24:03;1.98;;;1.50;;
58950;SDS011;44730;53.158;6.398;2022-07-23T13:26:29;1.15;;;1.10;;
58950;SDS011;44730;53.158;6.398;2022-07-23T13:28:55;1.20;;;1.10;;
58950;SDS011;44730;53.158;6.398;2022-07-23T13:31:21;2.55;;;1.25;;
58950;SDS011;44730;53.158;6.398;2022-07-23T13:33:48;1.88;;;1.38;;
58950;SDS011;44730;53.158;6.398;2022-07-23T13:36:16;2.25;;;1.40;;
58950;SDS011;44730;53.158;6.398;2022-07-23T13:38:42;2.17;;;1.45;;
58950;SDS011;44730;53.158;6.398;2022-07-23T13:41:11;1.70;;;1.42;;
58950;SDS011;44730;53.158;6.398;2022-07-23T13:43:41;2.47;;;1.52;;
58950;SDS011;44730;53.158;6.398;2022-07-23T13:46:08;1.40;;;1.30;;
58950;SDS011;44730;53.158;6.398;2022-07-23T13:48:33;1.77;;;1.33;;
58950;SDS011;44730;53.158;6.398;2022-07-23T13:50:59;1.95;;;1.50;;
58950;SDS011;44730;53.158;6.398;2022-07-23T13:53:25;1.33;;;1.23;;
58950;SDS011;44730;53.158;6.398;2022-07-23T13:55:53;1.38;;;1.27;;
58950;SDS011;44730;53.158;6.398;2022-07-23T13:58:22;1.45;;;1.25;;
58950;SDS011;44730;53.158;6.398;2022-07-23T14:00:49;2.13;;;1.63;;
58950;SDS011;44730;53.158;6.398;2022-07-23T14:03:17;2.50;;;1.50;;
58950;SDS011;44730;53.158;6.398;2022-07-23T14:05:51;2.00;;;1.40;;
58950;SDS011;44730;53.158;6.398;2022-07-23T14:08:18;3.25;;;1.55;;
58950;SDS011;44730;53.158;6.398;2022-07-23T14:10:47;1.85;;;1.40;;
58950;SDS011;44730;53.158;6.398;2022-07-23T14:13:13;1.30;;;1.20;;
58950;SDS011;44730;53.158;6.398;2022-07-23T14:15:44;2.17;;;1.50;;
58950;SDS011;44730;53.158;6.398;2022-07-23T14:18:14;2.08;;;1.50;;
58950;SDS011;44730;53.158;6.398;2022-07-23T14:20:41;1.52;;;1.25;;
58950;SDS011;44730;53.158;6.398;2022-07-23T14:23:07;1.67;;;1.40;;
58950;SDS011;44730;53.158;6.398;2022-07-23T14:25:32;1.73;;;1.33;;
58950;SDS011;44730;53.158;6.398;2022-07-23T14:27:58;2.13;;;1.40;;
58950;SDS011;44730;53.158;6.398;2022-07-23T14:30:24;1.77;;;1.42;;
58950;SDS011;44730;53.158;6.398;2022-07-23T14:32:50;2.90;;;1.38;;
58950;SDS011;44730;53.158;6.398;2022-07-23T14:35:16;1.45;;;1.35;;
58950;SDS011;44730;53.158;6.398;2022-07-23T14:37:42;2.45;;;1.65;;
58950;SDS011;44730;53.158;6.398;2022-07-23T14:40:08;1.58;;;1.48;;
58950;SDS011;44730;53.158;6.398;2022-07-23T14:42:34;1.50;;;1.30;;
58950;SDS011;44730;53.158;6.398;2022-07-23T14:45:00;2.33;;;1.50;;
58950;SDS011;44730;53.158;6.398;2022-07-23T14:47:25;3.00;;;1.48;;
58950;SDS011;44730;53.158;6.398;2022-07-23T14:49:51;2.15;;;1.20;;
58950;SDS011;44730;53.158;6.398;2022-07-23T14:52:17;2.10;;;1.60;;
58950;SDS011;44730;53.158;6.398;2022-07-23T14:54:43;2.28;;;1.33;;
58950;SDS011;44730;53.158;6.398;2022-07-23T14:57:08;1.25;;;1.15;;
58950;SDS011;44730;53.158;6.398;2022-07-23T14:59:34;1.90;;;1.33;;
58950;SDS011;44730;53.158;6.398;2022-07-23T15:02:00;2.13;;;1.20;;
58950;SDS011;44730;53.158;6.398;2022-07-23T15:04:26;1.45;;;1.35;;
58950;SDS011;44730;53.158;6.398;2022-07-23T15:06:52;2.17;;;1.30;;
58950;SDS011;44730;53.158;6.398;2022-07-23T15:09:18;2.13;;;1.60;;
58950;SDS011;44730;53.158;6.398;2022-07-23T15:11:46;5.00;;;1.83;;
58950;SDS011;44730;53.158;6.398;2022-07-23T15:14:12;1.85;;;1.30;;
58950;SDS011;44730;53.158;6.398;2022-07-23T15:16:38;1.50;;;1.35;;
58950;SDS011;44730;53.158;6.398;2022-07-23T15:19:04;3.72;;;1.30;;
58950;SDS011;44730;53.158;6.398;2022-07-23T15:21:30;3.20;;;1.50;;
58950;SDS011;44730;53.158;6.398;2022-07-23T15:23:56;4.65;;;1.50;;
58950;SDS011;44730;53.158;6.398;2022-07-23T15:26:24;2.03;;;1.50;;
58950;SDS011;44730;53.158;6.398;2022-07-23T15:28:51;1.92;;;1.45;;
58950;SDS011;44730;53.158;6.398;2022-07-23T15:31:17;1.50;;;1.40;;
58950;SDS011;44730;53.158;6.398;2022-07-23T15:33:43;1.67;;;1.25;;
58950;SDS011;44730;53.158;6.398;2022-07-23T15:36:11;1.50;;;1.40;;
58950;SDS011;44730;53.158;6.398;2022-07-23T15:38:38;1.83;;;1.25;;
58950;SDS011;44730;53.158;6.398;2022-07-23T15:41:04;1.85;;;1.50;;
58950;SDS011;44730;53.158;6.398;2022-07-23T15:43:32;1.40;;;1.30;;